Reklama

Seznam meteostanic a jejich METAR

Vyhledat místa podle abecedy:
A B C D E F G H I J K L M N O P Q R S T U V W X Y Z

Filtrovat:

ID stanice:
a/nebo
Název místa (fulltext):
 
Místo (ID)Naposledy načteno 
Červená - Opava (Cervena/uL) 08.04.2020 00:00 UTC Zobrazit data
Místo: Červená - Opava
Teplota: 9 °C (pocitová: 3.4 °C)
Vítr: 5 m/s z(e) 230°
Počasí:
Dohlednost: 35 km
Zákl. oblačnosti: N/A
Vlhkost: 27%
České Budějovice (C.Budej/po) 08.04.2020 00:00 UTC Zobrazit data
Místo: České Budějovice
Teplota: 4 °C (pocitová: 0.6 °C)
Vítr: 1 m/s z(e) 200°
Počasí:
Dohlednost: 25 km
Zákl. oblačnosti: N/A
Vlhkost: 75%
Cheb (Cheb) 08.04.2020 00:00 UTC Zobrazit data
Místo: Cheb
Teplota: 8 °C (pocitová: 5.5 °C)
Vítr: 1 m/s z(e) 310°
Počasí:
Dohlednost: 26 km
Zákl. oblačnosti: N/A
Vlhkost: 62%
Chotusice - Čáslav (Caslav) 08.04.2020 00:00 UTC Zobrazit data
Místo: Chotusice - Čáslav
Teplota: 7 °C (pocitová: 4.3 °C)
Vítr: 1 m/s z(e) 60°
Počasí: slunečno
Dohlednost: 20 km
Zákl. oblačnosti: N/A
Vlhkost: 49%
Churáňov (Churanov) 08.04.2020 00:00 UTC Zobrazit data
Místo: Churáňov
Teplota: 7 °C (pocitová: 3.1 °C)
Vítr: 2 m/s z(e) 100°
Počasí:
Dohlednost: 35 km
Zákl. oblačnosti: N/A
Vlhkost: 39%
Cairo (HECA) 08.04.2020 00:00 UTC Zobrazit METAR
HECA 080000Z 06008KT 9999 SCT025 15/11 Q1016 NOSIG
Canberra (YSCB) 07.04.2020 23:46 UTC Zobrazit METAR
YSCB 072346Z AUTO 07008KT 9999 // OVC025 OVC030 15/10 Q1023 TEMPO 2346/0246 3000 SHRA BKN010
Caracas (SVMP) Zatím nenačteno  
Cayenne (SOCA) 08.04.2020 00:00 UTC Zobrazit METAR
SOCA 080000Z AUTO 06006KT 9999 SCT020 SCT034 BKN045 28/24 Q1012 TEMPO 4000 SHRA SCT010 BKN015TCU
Charlotte Amalie (TIST) 07.04.2020 23:53 UTC Zobrazit METAR
TIST 072353Z 08008KT 10SM SCT046 27/22 A3000 RMK AO2 SLP160 T02670222 10306 20267 53015
Chisinau (LUKK) 08.04.2020 00:00 UTC Zobrazit METAR
LUKK 080000Z 28003KT CAVOK 03/M04 Q1032 R08/CLRD// NOSIG
Colombo (VCBI) 07.04.2020 18:10 UTC Zobrazit METAR
VCBI 071810Z 24005KT 9999 SCT020 29/25 Q1012 NOSIG
Conakry (GUCY) 07.04.2020 23:00 UTC Zobrazit METAR
GUCY 072300Z 28006KT CAVOK 27/24 Q1013 NOSIG
Constanta (LRCK) 08.04.2020 00:00 UTC Zobrazit METAR
LRCK 080000Z 35010KT CAVOK 04/M05 Q1031 NOSIG
Constantine (DABC) 08.04.2020 00:00 UTC Zobrazit METAR
DABC 080000Z 21003KT CAVOK 07/06 Q1025
Copenhagen (EKCH) 07.04.2020 05:50 UTC Zobrazit METAR
EKCH 070550Z AUTO 29011KT 9999 BKN075/// 09/07 Q1026 NOSIG
Cork (EICK) 07.04.2020 21:00 UTC Zobrazit METAR
EICK 072100Z 15003KT 9999 SCT002 06/06 Q1025 NOSIG
Cotonou (DBBB) 08.04.2020 00:00 UTC Zobrazit METAR
DBBB 080000Z 21008KT 9999 FEW012 29/25 Q1011 NOSIG
Curacao Island (TNCC) 08.04.2020 00:00 UTC Zobrazit METAR
TNCC 080000Z 09015KT 9999 FEW014 28/24 Q1012 NOSIG=
Reklama

Počasí na Váš email

Emaily jsou bez reklamy a bez spamu



Odhlásit newsletter

Reklama


Lunární kalendář

  • 15.04.
  • 23.04.
  • 30.04.
  • 07.05.





Vyhledat na internetu:
Reklama